DURO2: Washita River Durwood, OK

                                SHEF ID:       DURO2     Washita River near Dickson, OK
STATION TYPE:
Regulating: Stage = 27.00, Flow = 32534

PRECIP PRECIP(A) STAGE STAGE(2) RIV-FLOW BAT-LOAD
in in ft ft cfs volt
Ccp-Rev Ccp-Rev Ccp-Rev Ccp-Rev Ccp-Rev Ccp-Rev
(America/Chicago)
04/27 00:00 0.00 ---- 8.58 8.57 869 12.46
04/27 01:00 0.00 ---- 8.63 8.61 898 12.43
04/27 02:00 0.00 ---- 8.71 8.71 945 12.42
04/27 03:00 0.00 ---- 8.86 8.84 1051 12.41
04/27 04:00 0.00 ---- 9.02 9.01 1183 12.41
04/27 05:00 0.00 ---- 9.19 9.18 1334 12.40
04/27 06:00 0.00 ---- 9.31 9.31 1449 12.37
04/27 07:00 0.00 ---- 9.41 9.40 1542 12.37
04/27 08:00 0.00 ---- 9.48 9.47 1597 12.37
04/27 09:00 0.00 ---- 9.51 9.49 1621 12.58
04/27 10:00 0.00 ---- 9.53 9.50 1638 12.91
04/27 11:00 0.00 ---- 9.54 9.52 1646 12.95
04/27 12:00 0.00 ---- 9.53 9.50 1638 13.13
04/27 13:00 0.00 ---- 9.51 9.49 1621 12.98
04/27 14:00 0.00 ---- 9.46 9.45 1581 12.93
04/27 15:00 0.00 ---- 9.43 9.42 1558 12.93
04/27 16:00 0.00 ---- 9.39 9.38 1526 12.71
04/27 17:00 0.00 ---- 9.35 9.33 1489 12.59
04/27 18:00 0.00 ---- 9.31 9.29 1449 12.57
04/27 19:00 0.00 ---- 9.26 9.24 1400 12.61
04/27 20:00 0.00 ---- 9.21 9.19 1353 12.57
04/27 21:00 0.00 ---- 9.16 9.15 1307 12.50
04/27 22:00 0.00 ---- 9.12 9.10 1270 12.46
04/27 23:00 0.00 ---- 9.10 9.09 1252 12.40
Data processed at Tue 28Apr2026 04:36 GMT

NOTICE: If you are parsing this page

Please convert to using our Data API. Starting early 2026 we will be migrating to: https://water.usace.army.mil with modern pages rendered in JavaScript. When this migration completes you will no longer be able to scrape this page! CWMSDataAPI (CDA)

Timeseries IDs (TSIDs)

TSIDs used from left to right in the data table
DICK.Precip-Inc.Total.1Hour.1Hour.Ccp-Rev
DICK.Precip-Inc Alt.Total.1Hour.1Hour.Ccp-Rev
DICK.Stage.Inst.1Hour.0.Ccp-Rev
DICK.Flow.Inst.1Hour.0.Ccp-Rev
DICK.Volt-Battery Load.Inst.1Hour.0.Ccp-Rev

                            

All information presented herein is the property of the government of the United States of America and may be revised or deleted at any time without prior notice. Dissemination of this information without the expressed written consent of the Public Affairs Office, Tulsa District U.S. Army Corps of Engineers is strictly prohibited. These data are gathered electronically and, as presented, have NOT undergone any form of quality control. These data are NOT guaranteed to be valid or correct.